createdAt,value
2019-01-18T00:02:03.504Z,5.57
2019-01-18T00:04:33.819Z,5.57
2019-01-18T00:07:04.163Z,5.87
2019-01-18T00:09:34.436Z,3.87
2019-01-18T00:12:04.786Z,3.73
2019-01-18T00:14:34.997Z,3.30
2019-01-18T00:17:05.220Z,3.20
2019-01-18T00:19:35.507Z,5.47
2019-01-18T00:22:05.951Z,4.40
2019-01-18T00:24:36.234Z,4.03
2019-01-18T00:27:06.439Z,4.50
2019-01-18T00:29:36.640Z,4.20
2019-01-18T00:32:06.981Z,5.73
2019-01-18T00:34:37.168Z,5.03
2019-01-18T00:37:07.371Z,2.83
2019-01-18T00:39:37.642Z,3.33
2019-01-18T00:42:07.844Z,5.53
2019-01-18T00:44:38.038Z,6.23
2019-01-18T00:47:08.250Z,3.57
2019-01-18T00:49:38.432Z,4.63
2019-01-18T00:52:08.652Z,4.10
2019-01-18T00:54:38.844Z,5.80
2019-01-18T00:57:09.090Z,5.40
2019-01-18T00:59:39.435Z,5.73
2019-01-18T01:02:09.687Z,5.23
2019-01-18T01:04:39.973Z,3.97
2019-01-18T01:07:10.217Z,6.43
2019-01-18T01:09:40.484Z,7.43
2019-01-18T01:12:11.146Z,5.70
2019-01-18T01:14:41.408Z,4.30
2019-01-18T01:17:11.664Z,7.50
2019-01-18T01:19:41.878Z,2.77
2019-01-18T01:22:12.181Z,4.43
2019-01-18T01:24:42.399Z,7.10
2019-01-18T01:27:12.619Z,5.40
2019-01-18T01:29:43.181Z,4.00
2019-01-18T01:32:13.457Z,4.57
2019-01-18T01:34:43.801Z,3.43
2019-01-18T01:37:14.040Z,8.87
2019-01-18T01:39:44.319Z,5.50
2019-01-18T01:42:14.572Z,8.13
2019-01-18T01:44:44.843Z,6.20
2019-01-18T01:47:15.040Z,6.00
2019-01-18T01:49:45.296Z,4.40
2019-01-18T01:52:15.464Z,4.87
2019-01-18T01:54:45.752Z,4.17
2019-01-18T01:57:15.998Z,4.53
2019-01-18T01:59:49.775Z,6.13
2019-01-18T02:02:18.077Z,4.37
2019-01-18T02:04:48.352Z,3.10
2019-01-18T02:07:18.504Z,5.67
2019-01-18T02:09:48.797Z,5.23
2019-01-18T02:12:19.096Z,4.73
2019-01-18T02:14:49.408Z,4.57
2019-01-18T02:17:19.668Z,6.87
2019-01-18T02:19:49.969Z,6.30
2019-01-18T02:22:20.152Z,5.10
2019-01-18T02:24:50.411Z,3.80
2019-01-18T02:27:20.680Z,3.33
2019-01-18T02:29:56.518Z,11.63
2019-01-18T02:32:22.923Z,5.30
2019-01-18T02:34:53.192Z,5.57
2019-01-18T02:37:23.466Z,6.77
2019-01-18T02:39:53.696Z,7.53
2019-01-18T02:42:23.965Z,3.67
2019-01-18T02:44:54.162Z,5.07
2019-01-18T02:47:24.433Z,5.20
2019-01-18T02:49:54.716Z,4.53
2019-01-18T02:52:24.942Z,2.20
2019-01-18T02:54:55.223Z,5.47
2019-01-18T02:57:25.431Z,4.57
2019-01-18T02:59:55.610Z,4.63
2019-01-18T03:02:25.794Z,5.83
2019-01-18T03:04:55.985Z,4.07
2019-01-18T03:07:26.167Z,5.17
2019-01-18T03:09:56.436Z,4.80
2019-01-18T03:12:26.591Z,2.67
2019-01-18T03:14:56.775Z,4.80
2019-01-18T03:17:27.142Z,4.03
2019-01-18T03:19:57.342Z,3.53
2019-01-18T03:22:27.594Z,5.23
2019-01-18T03:24:57.784Z,5.83
2019-01-18T03:27:28.061Z,6.13
2019-01-18T03:29:58.315Z,4.20
2019-01-18T03:32:28.657Z,4.93
2019-01-18T03:34:58.922Z,7.77
2019-01-18T03:37:29.141Z,3.33
2019-01-18T03:39:59.296Z,5.00
2019-01-18T03:42:29.545Z,5.30
2019-01-18T03:44:59.738Z,7.23
2019-01-18T03:47:29.972Z,5.10
2019-01-18T03:50:00.338Z,3.03
2019-01-18T03:52:30.531Z,7.40
2019-01-18T03:55:00.799Z,6.27
2019-01-18T03:57:31.039Z,3.83
2019-01-18T04:00:01.245Z,6.07
2019-01-18T04:02:31.516Z,6.63
2019-01-18T04:05:01.669Z,6.53
2019-01-18T04:07:31.960Z,3.83
2019-01-18T04:10:02.211Z,5.23
2019-01-18T04:12:57.563Z,6.57
2019-01-18T04:15:25.254Z,7.73
2019-01-18T04:17:55.403Z,4.97
2019-01-18T04:20:25.709Z,4.90
2019-01-18T04:22:56.018Z,4.23
2019-01-18T04:25:31.117Z,6.60
2019-01-18T04:28:01.389Z,5.83
2019-01-18T04:30:33.494Z,5.47
2019-01-18T04:33:03.564Z,8.27
2019-01-18T04:35:33.804Z,7.27
2019-01-18T04:38:04.117Z,4.20
2019-01-18T04:40:34.384Z,2.87
2019-01-18T04:43:04.661Z,3.43
2019-01-18T04:45:34.844Z,5.20
2019-01-18T04:48:05.184Z,2.63
2019-01-18T04:50:35.350Z,3.63
2019-01-18T04:53:05.540Z,4.53
2019-01-18T04:55:35.720Z,3.93
2019-01-18T04:58:06.100Z,4.70
2019-01-18T05:00:40.505Z,4.47
2019-01-18T05:03:08.269Z,4.93
2019-01-18T05:05:38.545Z,5.47
2019-01-18T05:08:08.824Z,2.60
2019-01-18T05:10:39.014Z,4.70
2019-01-18T05:13:09.284Z,7.00
2019-01-18T05:15:39.455Z,3.27
2019-01-18T05:18:09.672Z,3.67
2019-01-18T05:20:39.872Z,5.73
2019-01-18T05:23:10.124Z,4.63
2019-01-18T05:25:40.323Z,5.50
2019-01-18T05:28:10.656Z,5.40
2019-01-18T05:30:47.280Z,6.50
2019-01-18T05:33:12.930Z,3.80
2019-01-18T05:35:43.113Z,5.63
2019-01-18T05:38:13.388Z,4.43
2019-01-18T05:40:43.579Z,5.83
2019-01-18T05:43:13.879Z,3.70
2019-01-18T05:45:44.059Z,5.43
2019-01-18T05:48:14.275Z,4.67
2019-01-18T05:50:44.439Z,4.50
2019-01-18T05:53:14.916Z,6.97
2019-01-18T05:55:45.176Z,6.27
2019-01-18T05:58:15.369Z,8.17
2019-01-18T06:01:04.576Z,5.40
2019-01-18T06:03:34.785Z,4.63
2019-01-18T06:06:05.615Z,3.77
2019-01-18T06:08:35.936Z,7.10
2019-01-18T06:11:06.104Z,4.57
2019-01-18T06:13:36.359Z,8.00
2019-01-18T06:16:06.618Z,7.20
2019-01-18T06:18:36.876Z,5.63
2019-01-18T06:21:07.056Z,4.93
2019-01-18T06:23:37.231Z,5.07
2019-01-18T06:26:07.414Z,5.43
2019-01-18T06:28:37.745Z,4.73
2019-01-18T06:31:07.958Z,4.23
2019-01-18T06:33:38.254Z,6.20
2019-01-18T06:36:08.549Z,7.37
2019-01-18T06:38:38.876Z,8.03
2019-01-18T06:41:16.732Z,10.90
2019-01-18T06:43:47.032Z,5.30
2019-01-18T06:46:17.265Z,10.23
2019-01-18T06:48:48.181Z,9.53
2019-01-18T06:51:18.446Z,13.10
2019-01-18T06:53:48.753Z,6.67
2019-01-18T06:56:19.031Z,9.37
2019-01-18T06:58:49.236Z,8.10
2019-01-18T07:01:19.462Z,8.67
2019-01-18T07:03:49.654Z,5.57
2019-01-18T07:06:19.856Z,8.87
2019-01-18T07:08:50.196Z,5.77
2019-01-18T07:11:20.493Z,8.30
2019-01-18T07:13:50.776Z,8.57
2019-01-18T07:16:20.961Z,8.13
2019-01-18T07:18:54.547Z,7.07
2019-01-18T07:21:24.785Z,7.60
2019-01-18T07:23:55.027Z,7.83
2019-01-18T07:26:25.248Z,9.17
2019-01-18T07:28:55.496Z,4.50
2019-01-18T07:31:25.742Z,3.37
2019-01-18T07:33:56.002Z,5.80
2019-01-18T07:36:26.258Z,7.13
2019-01-18T07:39:00.464Z,8.90
2019-01-18T07:41:28.520Z,5.07
2019-01-18T07:43:58.840Z,4.53
2019-01-18T07:46:29.018Z,5.70
2019-01-18T07:48:59.283Z,6.20
2019-01-18T07:51:29.541Z,5.90
2019-01-18T07:53:59.734Z,6.47
2019-01-18T07:56:29.897Z,5.40
2019-01-18T07:59:00.144Z,3.97
2019-01-18T08:01:31.839Z,4.70
2019-01-18T08:04:03.475Z,5.67
2019-01-18T08:06:35.106Z,11.23
2019-01-18T08:09:08.230Z,8.03
2019-01-18T08:11:38.458Z,6.87
2019-01-18T08:14:08.688Z,5.30
2019-01-18T08:16:38.961Z,9.87
2019-01-18T08:19:09.267Z,7.23
2019-01-18T08:21:39.479Z,7.77
2019-01-18T08:24:09.791Z,6.60
2019-01-18T08:26:39.983Z,8.23
2019-01-18T08:29:10.284Z,6.53
2019-01-18T08:31:40.556Z,9.57
2019-01-18T08:34:10.815Z,7.43
2019-01-18T08:36:41.013Z,7.77
2019-01-18T08:39:11.240Z,10.03
2019-01-18T08:41:41.541Z,14.40
2019-01-18T08:44:11.794Z,6.27
2019-01-18T08:46:41.986Z,8.73
2019-01-18T08:49:12.195Z,6.27
2019-01-18T08:51:42.399Z,6.37
2019-01-18T08:54:12.704Z,12.17
2019-01-18T08:56:42.901Z,8.97
2019-01-18T08:59:13.234Z,10.40
2019-01-18T09:01:43.556Z,10.90
2019-01-18T09:04:13.914Z,12.90
2019-01-18T09:06:44.189Z,9.70
2019-01-18T09:09:14.497Z,7.97
2019-01-18T09:11:44.791Z,22.83
2019-01-18T09:14:19.419Z,14.70
2019-01-18T09:16:47.091Z,11.83
2019-01-18T09:19:17.464Z,11.70
2019-01-18T09:21:47.752Z,6.50
2019-01-18T09:24:18.040Z,7.53
2019-01-18T09:26:48.246Z,10.73
2019-01-18T09:29:18.437Z,8.90
2019-01-18T09:31:48.777Z,9.30
2019-01-18T09:34:19.041Z,9.10
2019-01-18T09:36:49.357Z,8.77
2019-01-18T09:39:19.720Z,12.33
2019-01-18T09:41:50.014Z,8.10
2019-01-18T09:44:20.256Z,10.20
2019-01-18T09:46:50.504Z,9.30
2019-01-18T09:49:20.773Z,8.50
2019-01-18T09:51:50.972Z,9.60
2019-01-18T09:54:21.237Z,12.57
2019-01-18T09:56:51.517Z,9.57
2019-01-18T09:59:21.729Z,7.70
2019-01-18T10:01:51.891Z,7.93
2019-01-18T10:04:22.189Z,8.73
2019-01-18T10:06:52.477Z,6.17
2019-01-18T10:09:22.741Z,9.33
2019-01-18T10:11:52.938Z,9.23
2019-01-18T10:14:23.207Z,10.07
2019-01-18T10:16:53.438Z,8.00
2019-01-18T10:19:23.669Z,12.63
2019-01-18T10:21:54.017Z,7.93
2019-01-18T10:24:24.309Z,10.10
2019-01-18T10:26:54.542Z,14.37
2019-01-18T10:29:28.270Z,7.17
2019-01-18T10:31:56.785Z,9.33
2019-01-18T10:34:27.029Z,9.10
2019-01-18T10:36:57.253Z,8.77
2019-01-18T10:39:27.476Z,11.63
2019-01-18T10:41:57.676Z,11.63
2019-01-18T10:44:27.904Z,12.00
2019-01-18T10:46:58.120Z,9.60
2019-01-18T10:49:28.410Z,9.10
2019-01-18T10:51:58.593Z,8.37
2019-01-18T10:54:28.818Z,9.27
2019-01-18T10:56:59.117Z,9.33
2019-01-18T10:59:29.457Z,9.73
2019-01-18T11:02:06.947Z,10.93
2019-01-18T11:04:31.716Z,7.43
2019-01-18T11:07:01.921Z,8.23
2019-01-18T11:09:32.263Z,13.03
2019-01-18T11:12:02.469Z,11.07
2019-01-18T11:14:32.778Z,13.10
2019-01-18T11:17:03.096Z,12.97
2019-01-18T11:19:33.301Z,13.37
2019-01-18T11:22:03.558Z,8.13
2019-01-18T11:24:33.917Z,9.07
2019-01-18T11:27:04.474Z,8.33
2019-01-18T11:29:34.740Z,18.20
2019-01-18T11:32:05.017Z,13.17
2019-01-18T11:34:35.394Z,19.33
2019-01-18T11:37:05.676Z,11.47
2019-01-18T11:39:35.968Z,10.17
2019-01-18T11:42:06.182Z,14.20
2019-01-18T11:44:36.465Z,10.73
2019-01-18T11:47:06.662Z,7.20
2019-01-18T11:49:36.948Z,9.23
2019-01-18T11:52:07.191Z,8.17
2019-01-18T11:54:37.440Z,6.00
2019-01-18T11:57:07.735Z,10.07
2019-01-18T11:59:38.061Z,9.80
2019-01-18T12:02:15.005Z,8.47
2019-01-18T12:04:40.826Z,9.03
2019-01-18T12:07:11.185Z,7.40
2019-01-18T12:09:41.469Z,12.53
2019-01-18T12:12:11.816Z,10.03
2019-01-18T12:14:42.116Z,7.80
2019-01-18T12:17:13.700Z,10.20
2019-01-18T12:19:43.913Z,9.90
2019-01-18T12:22:14.139Z,5.60
2019-01-18T12:24:44.304Z,8.80
2019-01-18T12:27:14.624Z,6.63
2019-01-18T12:29:44.905Z,11.23
2019-01-18T12:32:15.216Z,10.03
2019-01-18T12:34:45.504Z,6.70
2019-01-18T12:37:15.707Z,8.30
2019-01-18T12:39:47.370Z,8.67
2019-01-18T12:42:17.658Z,9.13
2019-01-18T12:44:48.008Z,8.50
2019-01-18T12:47:18.241Z,9.23
2019-01-18T12:49:48.553Z,10.80
2019-01-18T12:52:18.867Z,11.00
2019-01-18T12:54:49.164Z,10.30
2019-01-18T12:57:19.478Z,10.23
2019-01-18T12:59:49.976Z,10.10
2019-01-18T13:02:20.305Z,7.10
2019-01-18T13:04:51.673Z,8.97
2019-01-18T13:07:21.909Z,10.37
2019-01-18T13:09:52.182Z,11.43
2019-01-18T13:12:24.204Z,9.60
2019-01-18T13:14:57.320Z,8.37
2019-01-18T13:17:26.620Z,10.23
2019-01-18T13:19:57.019Z,7.30
2019-01-18T13:22:27.312Z,9.83
2019-01-18T13:24:57.663Z,7.07
2019-01-18T13:27:27.991Z,8.03
2019-01-18T13:29:58.257Z,11.10
2019-01-18T13:32:28.615Z,8.60
2019-01-18T13:34:58.931Z,9.83
2019-01-18T13:37:29.228Z,8.57
2019-01-18T13:39:59.434Z,12.23
2019-01-18T13:42:29.655Z,6.43
2019-01-18T13:44:59.940Z,6.47
2019-01-18T13:47:30.210Z,10.07
2019-01-18T13:50:00.489Z,7.07
2019-01-18T13:52:30.709Z,7.13
2019-01-18T13:55:00.917Z,8.43
2019-01-18T13:57:31.288Z,10.23
2019-01-18T14:00:01.566Z,8.00
2019-01-18T14:02:31.973Z,8.13
2019-01-18T14:05:02.190Z,6.50
2019-01-18T14:07:32.490Z,10.07
2019-01-18T14:10:02.796Z,7.17
2019-01-18T14:12:33.082Z,9.57
2019-01-18T14:15:03.550Z,8.77
2019-01-18T14:17:33.860Z,10.30
2019-01-18T14:20:04.763Z,13.20
2019-01-18T14:22:35.050Z,10.40
2019-01-18T14:25:05.413Z,8.57
2019-01-18T14:27:35.748Z,15.67
2019-01-18T14:30:07.451Z,9.17
2019-01-18T14:32:37.662Z,11.20
2019-01-18T14:35:08.025Z,15.57
2019-01-18T14:37:38.332Z,9.13
2019-01-18T14:40:09.736Z,11.60
2019-01-18T14:42:40.421Z,11.80
2019-01-18T14:45:13.632Z,9.20
2019-01-18T14:47:43.945Z,14.13
2019-01-18T14:50:17.402Z,13.57
2019-01-18T14:52:47.795Z,9.37
2019-01-18T14:55:18.004Z,9.13
2019-01-18T14:57:49.617Z,8.93
2019-01-18T15:00:26.559Z,9.90
2019-01-18T15:03:02.203Z,10.97
2019-01-18T15:05:29.814Z,11.97
2019-01-18T15:08:00.373Z,22.53
2019-01-18T15:10:30.567Z,10.47
2019-01-18T15:13:13.383Z,10.47
2019-01-18T15:15:43.581Z,8.70
2019-01-18T15:18:14.751Z,10.23
2019-01-18T15:20:44.960Z,11.70
2019-01-18T15:23:15.875Z,10.57
2019-01-18T15:25:46.682Z,14.70
2019-01-18T15:28:17.822Z,11.87
2019-01-18T15:30:48.141Z,9.10
2019-01-18T15:33:18.339Z,15.10
2019-01-18T15:35:48.661Z,10.83
2019-01-18T15:38:20.042Z,12.03
2019-01-18T15:40:50.746Z,10.20
2019-01-18T15:43:23.501Z,8.33
2019-01-18T15:45:54.866Z,10.70
2019-01-18T15:48:25.187Z,11.20
2019-01-18T15:50:55.384Z,12.53
2019-01-18T15:53:25.682Z,12.63
2019-01-18T15:55:58.364Z,12.77
2019-01-18T15:58:28.654Z,11.20
2019-01-18T16:00:59.851Z,8.33
2019-01-18T16:03:30.856Z,12.07
2019-01-18T16:06:02.099Z,13.17
2019-01-18T16:08:32.458Z,12.47
2019-01-18T16:11:02.786Z,10.33
2019-01-18T16:13:33.128Z,9.00
2019-01-18T16:16:42.779Z,17.27
2019-01-18T16:19:13.113Z,17.53
2019-01-18T16:21:43.440Z,17.53
2019-01-18T16:24:13.730Z,16.67
2019-01-18T16:26:43.924Z,10.63
2019-01-18T16:29:14.282Z,22.77
2019-01-18T16:31:44.513Z,21.87
2019-01-18T16:34:14.712Z,13.73
2019-01-18T16:36:44.942Z,12.10
2019-01-18T16:39:15.279Z,24.30
2019-01-18T16:41:45.496Z,13.37
2019-01-18T16:44:15.817Z,11.93
2019-01-18T16:46:46.690Z,10.60
2019-01-18T16:49:17.024Z,8.53
2019-01-18T16:51:47.266Z,8.13
2019-01-18T16:54:17.505Z,9.90
2019-01-18T16:56:47.780Z,9.70
2019-01-18T16:59:18.066Z,7.97
2019-01-18T17:01:48.390Z,10.20
2019-01-18T17:04:18.697Z,8.00
2019-01-18T17:06:49.081Z,10.47
2019-01-18T17:09:19.353Z,9.47
2019-01-18T17:11:49.571Z,10.47
2019-01-18T17:14:19.861Z,6.27
2019-01-18T17:16:50.142Z,9.23
2019-01-18T17:19:20.313Z,6.93
2019-01-18T17:21:50.496Z,8.93
2019-01-18T17:24:20.792Z,12.60
2019-01-18T17:26:51.128Z,9.53
2019-01-18T17:29:21.332Z,9.77
2019-01-18T17:31:51.529Z,9.40
2019-01-18T17:34:21.788Z,7.73
2019-01-18T17:37:01.901Z,10.50
2019-01-18T17:39:43.928Z,9.67
2019-01-18T17:42:28.813Z,10.00
2019-01-18T17:45:47.539Z,12.60
2019-01-18T17:48:48.519Z,11.40
2019-01-18T17:51:54.868Z,11.90
2019-01-18T17:54:54.014Z,14.37
2019-01-18T17:58:08.948Z,14.67
2019-01-18T18:01:18.629Z,16.23
2019-01-18T18:04:25.067Z,17.63
2019-01-18T18:07:38.186Z,12.03
2019-01-18T18:11:11.063Z,15.10
2019-01-18T18:14:16.453Z,16.67
2019-01-18T18:17:21.143Z,14.27
2019-01-18T18:20:18.219Z,11.83
2019-01-18T18:23:14.402Z,10.67
2019-01-18T18:26:24.392Z,11.70
2019-01-18T18:29:50.948Z,16.03
2019-01-18T18:33:03.872Z,15.07
2019-01-18T18:36:21.605Z,14.03
2019-01-18T18:39:44.475Z,28.23
2019-01-18T18:43:03.054Z,21.07
2019-01-18T18:45:55.377Z,17.37
2019-01-18T18:48:32.569Z,16.07
2019-01-18T18:51:55.720Z,13.23
2019-01-18T18:54:59.274Z,18.80
2019-01-18T18:57:59.673Z,19.73
2019-01-18T19:00:50.700Z,21.80
2019-01-18T19:04:16.004Z,18.77
2019-01-18T19:07:21.722Z,19.10
2019-01-18T19:10:17.566Z,18.87
2019-01-18T19:13:05.655Z,16.27
2019-01-18T19:16:13.944Z,13.03
2019-01-18T19:18:56.702Z,16.53
2019-01-18T19:22:12.377Z,16.53
2019-01-18T19:25:32.926Z,14.23
2019-01-18T19:28:34.769Z,13.90
2019-01-18T19:31:54.302Z,19.00
2019-01-18T19:34:41.803Z,14.60
2019-01-18T19:37:54.385Z,17.43
2019-01-18T19:40:35.959Z,19.03
2019-01-18T19:43:42.896Z,19.80
2019-01-18T19:46:27.237Z,19.53
2019-01-18T19:49:46.337Z,20.27
2019-01-18T19:52:44.596Z,23.83
2019-01-18T19:55:51.546Z,15.43
2019-01-18T19:58:48.861Z,15.10
2019-01-18T20:01:34.816Z,13.33
2019-01-18T20:04:40.558Z,15.13
2019-01-18T20:07:42.166Z,16.93
2019-01-18T20:10:55.235Z,15.63
2019-01-18T20:14:00.414Z,20.40
2019-01-18T20:16:59.441Z,13.90
2019-01-18T20:20:12.329Z,12.40
2019-01-18T20:23:19.693Z,14.77
2019-01-18T20:26:25.175Z,16.83
2019-01-18T20:29:20.250Z,19.33
2019-01-18T20:32:34.608Z,22.97
2019-01-18T20:35:34.331Z,22.87
2019-01-18T20:38:30.178Z,21.17
2019-01-18T20:41:53.207Z,16.33
2019-01-18T20:45:01.370Z,18.10
2019-01-18T20:48:21.645Z,20.17
2019-01-18T20:51:22.084Z,15.97
2019-01-18T20:54:38.502Z,18.43
2019-01-18T20:57:36.843Z,15.90
2019-01-18T21:00:44.585Z,14.33
2019-01-18T21:04:04.714Z,13.30
2019-01-18T21:07:02.373Z,15.57
2019-01-18T21:10:16.946Z,15.60
2019-01-18T21:13:27.862Z,16.93
2019-01-18T21:16:21.332Z,17.93
2019-01-18T21:19:17.127Z,14.07
2019-01-18T21:22:01.989Z,14.93
2019-01-18T21:25:10.317Z,14.30
2019-01-18T21:28:02.362Z,14.77
2019-01-18T21:30:58.415Z,13.53
2019-01-18T21:33:54.417Z,13.63
2019-01-18T21:37:01.876Z,15.00
2019-01-18T21:40:30.055Z,16.80
2019-01-18T21:43:43.253Z,12.57
2019-01-18T21:46:40.888Z,15.40
2019-01-18T21:49:35.767Z,13.20
2019-01-18T21:52:37.746Z,14.40
2019-01-18T21:56:00.133Z,15.43
2019-01-18T21:58:46.579Z,13.37
2019-01-18T22:01:41.301Z,14.30
2019-01-18T22:04:27.449Z,14.97
2019-01-18T22:07:45.289Z,19.77
2019-01-18T22:10:41.467Z,13.27
2019-01-18T22:13:31.593Z,14.33
2019-01-18T22:16:41.783Z,15.07
2019-01-18T22:19:57.654Z,16.23
2019-01-18T22:23:09.860Z,17.20
2019-01-18T22:25:59.450Z,17.87
2019-01-18T22:29:21.461Z,19.17
2019-01-18T22:32:19.528Z,18.00
2019-01-18T22:35:18.220Z,12.47
2019-01-18T22:38:20.201Z,16.67
2019-01-18T22:41:52.634Z,14.13
2019-01-18T22:45:09.989Z,17.15
2019-01-18T22:48:03.001Z,14.97
2019-01-18T22:50:55.475Z,14.37
2019-01-18T22:53:59.433Z,18.77
2019-01-18T22:56:58.416Z,15.33
2019-01-18T23:00:30.535Z,17.03
2019-01-18T23:03:57.005Z,12.73
2019-01-18T23:07:25.939Z,15.87
2019-01-18T23:10:40.329Z,16.23
2019-01-18T23:13:23.199Z,15.10
2019-01-18T23:16:52.324Z,14.57
2019-01-18T23:19:45.788Z,15.83
2019-01-18T23:22:48.077Z,16.03
2019-01-18T23:25:27.898Z,16.10
2019-01-18T23:28:08.949Z,17.33
2019-01-18T23:30:53.867Z,16.13
2019-01-18T23:34:05.276Z,15.33
2019-01-18T23:36:48.676Z,15.60
2019-01-18T23:40:12.167Z,14.77
2019-01-18T23:43:17.603Z,16.70
2019-01-18T23:46:44.420Z,14.90
2019-01-18T23:50:04.656Z,15.90
2019-01-18T23:53:30.802Z,13.07
2019-01-18T23:56:40.488Z,14.10
2019-01-18T23:59:54.502Z,15.63
